sensor_id;sensor_type;location;lat;lon;timestamp;pressure;altitude;pressure_sealevel;temperature;humidity
77572;BME280;67214;47.454;18.966;2024-02-04T00:01:27;100604.59;;;9.23;70.16
77572;BME280;67214;47.454;18.966;2024-02-04T00:03:54;100592.78;;;9.34;69.64
77572;BME280;67214;47.454;18.966;2024-02-04T00:06:22;100607.19;;;9.43;69.11
77572;BME280;67214;47.454;18.966;2024-02-04T00:08:49;100603.50;;;9.45;69.01
77572;BME280;67214;47.454;18.966;2024-02-04T00:11:17;100608.52;;;9.43;69.08
77572;BME280;67214;47.454;18.966;2024-02-04T00:13:44;100610.44;;;9.41;69.12
77572;BME280;67214;47.454;18.966;2024-02-04T00:16:11;100615.44;;;9.38;69.25
77572;BME280;67214;47.454;18.966;2024-02-04T00:18:39;100616.23;;;9.46;68.94
77572;BME280;67214;47.454;18.966;2024-02-04T00:21:07;100620.11;;;9.47;68.86
77572;BME280;67214;47.454;18.966;2024-02-04T00:23:34;100607.35;;;9.47;69.02
77572;BME280;67214;47.454;18.966;2024-02-04T00:26:02;100603.37;;;9.47;69.25
77572;BME280;67214;47.454;18.966;2024-02-04T00:28:29;100608.89;;;9.44;69.15
77572;BME280;67214;47.454;18.966;2024-02-04T00:30:56;100601.80;;;9.44;69.09
77572;BME280;67214;47.454;18.966;2024-02-04T00:33:25;100608.61;;;9.54;68.63
77572;BME280;67214;47.454;18.966;2024-02-04T00:35:53;100596.98;;;9.44;69.02
77572;BME280;67214;47.454;18.966;2024-02-04T00:38:20;100600.00;;;9.45;68.97
77572;BME280;67214;47.454;18.966;2024-02-04T00:40:48;100601.64;;;9.40;69.56
77572;BME280;67214;47.454;18.966;2024-02-04T00:43:15;100608.41;;;9.31;69.92
77572;BME280;67214;47.454;18.966;2024-02-04T00:45:43;100605.67;;;9.33;69.74
77572;BME280;67214;47.454;18.966;2024-02-04T00:48:10;100603.66;;;9.37;69.91
77572;BME280;67214;47.454;18.966;2024-02-04T00:50:37;100606.16;;;9.25;70.31
77572;BME280;67214;47.454;18.966;2024-02-04T00:53:05;100602.05;;;9.34;69.79
77572;BME280;67214;47.454;18.966;2024-02-04T00:55:32;100619.41;;;9.38;69.84
77572;BME280;67214;47.454;18.966;2024-02-04T00:58:00;100608.48;;;9.37;69.56
77572;BME280;67214;47.454;18.966;2024-02-04T01:00:28;100605.02;;;9.42;69.42
77572;BME280;67214;47.454;18.966;2024-02-04T01:02:56;100609.97;;;9.41;69.44
77572;BME280;67214;47.454;18.966;2024-02-04T01:05:23;100601.64;;;9.40;69.50
77572;BME280;67214;47.454;18.966;2024-02-04T01:07:51;100607.81;;;9.33;69.72
77572;BME280;67214;47.454;18.966;2024-02-04T01:10:18;100594.95;;;9.34;69.65
77572;BME280;67214;47.454;18.966;2024-02-04T01:12:45;100599.52;;;9.32;69.90
77572;BME280;67214;47.454;18.966;2024-02-04T01:15:13;100595.91;;;9.33;69.82
77572;BME280;67214;47.454;18.966;2024-02-04T01:17:40;100588.77;;;9.28;69.79
77572;BME280;67214;47.454;18.966;2024-02-04T01:20:09;100588.55;;;9.19;70.43
77572;BME280;67214;47.454;18.966;2024-02-04T01:22:36;100583.77;;;9.11;70.84
77572;BME280;67214;47.454;18.966;2024-02-04T01:25:04;100583.95;;;9.28;70.31
77572;BME280;67214;47.454;18.966;2024-02-04T01:27:32;100570.13;;;9.30;70.26
77572;BME280;67214;47.454;18.966;2024-02-04T01:30:00;100569.62;;;9.25;70.57
77572;BME280;67214;47.454;18.966;2024-02-04T01:32:27;100562.24;;;9.23;70.85
77572;BME280;67214;47.454;18.966;2024-02-04T01:34:55;100565.16;;;9.13;71.09
77572;BME280;67214;47.454;18.966;2024-02-04T01:37:22;100565.16;;;9.13;71.37
77572;BME280;67214;47.454;18.966;2024-02-04T01:39:50;100566.90;;;9.19;71.18
77572;BME280;67214;47.454;18.966;2024-02-04T01:42:17;100571.66;;;9.27;71.16
77572;BME280;67214;47.454;18.966;2024-02-04T01:44:44;100559.48;;;9.12;71.82
77572;BME280;67214;47.454;18.966;2024-02-04T01:47:12;100569.33;;;9.22;71.62
77572;BME280;67214;47.454;18.966;2024-02-04T01:49:40;100563.34;;;9.13;71.98
77572;BME280;67214;47.454;18.966;2024-02-04T01:52:09;100550.39;;;9.16;72.06
77572;BME280;67214;47.454;18.966;2024-02-04T01:54:38;100551.28;;;9.22;71.79
77572;BME280;67214;47.454;18.966;2024-02-04T01:57:07;100545.50;;;9.10;72.23
77572;BME280;67214;47.454;18.966;2024-02-04T01:59:39;100562.33;;;8.96;72.85
77572;BME280;67214;47.454;18.966;2024-02-04T02:02:07;100560.88;;;8.98;72.78
77572;BME280;67214;47.454;18.966;2024-02-04T02:04:35;100556.70;;;8.88;73.12
77572;BME280;67214;47.454;18.966;2024-02-04T02:07:02;100544.78;;;8.75;73.67
77572;BME280;67214;47.454;18.966;2024-02-04T02:09:29;100551.40;;;8.68;74.28
77572;BME280;67214;47.454;18.966;2024-02-04T02:12:12;100547.59;;;8.60;74.65
77572;BME280;67214;47.454;18.966;2024-02-04T02:14:42;100530.67;;;8.62;74.75
77572;BME280;67214;47.454;18.966;2024-02-04T02:17:14;100544.41;;;8.55;75.34
77572;BME280;67214;47.454;18.966;2024-02-04T02:19:54;100543.25;;;8.59;75.14
77572;BME280;67214;47.454;18.966;2024-02-04T02:22:48;100541.41;;;8.66;75.04
77572;BME280;67214;47.454;18.966;2024-02-04T02:25:14;100532.23;;;8.72;74.76
77572;BME280;67214;47.454;18.966;2024-02-04T02:27:51;100540.31;;;8.63;75.12
77572;BME280;67214;47.454;18.966;2024-02-04T02:30:19;100532.20;;;8.59;75.56
77572;BME280;67214;47.454;18.966;2024-02-04T02:32:48;100532.38;;;8.56;75.87
77572;BME280;67214;47.454;18.966;2024-02-04T02:35:16;100535.19;;;8.67;75.48
77572;BME280;67214;47.454;18.966;2024-02-04T02:40:30;100547.26;;;8.52;76.28
77572;BME280;67214;47.454;18.966;2024-02-04T02:43:01;100545.77;;;8.48;76.64
77572;BME280;67214;47.454;18.966;2024-02-04T02:45:29;100549.05;;;8.44;76.78
77572;BME280;67214;47.454;18.966;2024-02-04T02:47:58;100536.64;;;8.39;77.22
77572;BME280;67214;47.454;18.966;2024-02-04T02:50:26;100533.44;;;8.34;77.75
77572;BME280;67214;47.454;18.966;2024-02-04T02:52:54;100538.55;;;8.30;77.92
77572;BME280;67214;47.454;18.966;2024-02-04T02:55:22;100535.91;;;8.23;78.24
77572;BME280;67214;47.454;18.966;2024-02-04T02:57:49;100542.34;;;8.19;78.12
77572;BME280;67214;47.454;18.966;2024-02-04T03:00:17;100543.13;;;8.07;78.62
77572;BME280;67214;47.454;18.966;2024-02-04T03:02:44;100532.96;;;7.93;79.35
77572;BME280;67214;47.454;18.966;2024-02-04T03:05:15;100532.83;;;8.09;79.57
77572;BME280;67214;47.454;18.966;2024-02-04T03:07:42;100520.29;;;8.06;79.68
77572;BME280;67214;47.454;18.966;2024-02-04T03:10:10;100511.98;;;8.05;79.83
77572;BME280;67214;47.454;18.966;2024-02-04T03:12:38;100510.48;;;8.01;80.00
77572;BME280;67214;47.454;18.966;2024-02-04T03:15:06;100503.33;;;7.95;80.15
77572;BME280;67214;47.454;18.966;2024-02-04T03:17:33;100518.00;;;8.14;79.70
77572;BME280;67214;47.454;18.966;2024-02-04T03:20:01;100531.70;;;8.06;80.04
77572;BME280;67214;47.454;18.966;2024-02-04T03:22:28;100530.97;;;7.97;80.37
77572;BME280;67214;47.454;18.966;2024-02-04T03:24:55;100541.25;;;7.87;80.48
77572;BME280;67214;47.454;18.966;2024-02-04T03:27:23;100554.67;;;7.77;80.96
77572;BME280;67214;47.454;18.966;2024-02-04T03:29:50;100555.51;;;7.71;81.30
77572;BME280;67214;47.454;18.966;2024-02-04T03:32:18;100540.92;;;7.65;81.65
77572;BME280;67214;47.454;18.966;2024-02-04T03:34:45;100549.02;;;7.55;82.26
77572;BME280;67214;47.454;18.966;2024-02-04T03:37:13;100544.69;;;7.47;82.68
77572;BME280;67214;47.454;18.966;2024-02-04T03:39:40;100537.71;;;7.39;83.23
77572;BME280;67214;47.454;18.966;2024-02-04T03:42:07;100535.00;;;7.33;83.36
77572;BME280;67214;47.454;18.966;2024-02-04T03:44:35;100537.90;;;7.43;83.51
77572;BME280;67214;47.454;18.966;2024-02-04T03:47:02;100556.09;;;7.47;84.04
77572;BME280;67214;47.454;18.966;2024-02-04T03:49:30;100557.69;;;7.50;84.31
77572;BME280;67214;47.454;18.966;2024-02-04T03:51:57;100564.95;;;7.46;84.36
77572;BME280;67214;47.454;18.966;2024-02-04T03:54:25;100576.08;;;7.44;84.40
77572;BME280;67214;47.454;18.966;2024-02-04T03:56:52;100572.97;;;7.73;84.07
77572;BME280;67214;47.454;18.966;2024-02-04T03:59:19;100563.53;;;7.90;83.37
77572;BME280;67214;47.454;18.966;2024-02-04T04:01:50;100562.58;;;7.99;82.99
77572;BME280;67214;47.454;18.966;2024-02-04T04:04:20;100558.59;;;8.06;82.69
77572;BME280;67214;47.454;18.966;2024-02-04T04:06:48;100567.91;;;8.18;82.04
77572;BME280;67214;47.454;18.966;2024-02-04T04:09:15;100566.56;;;8.32;81.21
77572;BME280;67214;47.454;18.966;2024-02-04T04:11:42;100572.20;;;8.40;80.70
77572;BME280;67214;47.454;18.966;2024-02-04T04:14:10;100568.58;;;8.49;80.24
77572;BME280;67214;47.454;18.966;2024-02-04T04:16:37;100571.39;;;8.53;79.80
77572;BME280;67214;47.454;18.966;2024-02-04T04:19:05;100565.64;;;8.53;79.63
77572;BME280;67214;47.454;18.966;2024-02-04T04:21:33;100568.75;;;8.60;79.30
77572;BME280;67214;47.454;18.966;2024-02-04T04:24:02;100557.02;;;8.64;78.97
77572;BME280;67214;47.454;18.966;2024-02-04T04:26:29;100553.41;;;8.65;78.96
77572;BME280;67214;47.454;18.966;2024-02-04T04:28:58;100558.81;;;8.63;78.93
77572;BME280;67214;47.454;18.966;2024-02-04T04:31:25;100548.20;;;8.51;79.46
77572;BME280;67214;47.454;18.966;2024-02-04T04:33:52;100543.55;;;8.54;79.32
77572;BME280;67214;47.454;18.966;2024-02-04T04:36:20;100550.84;;;8.51;79.50
77572;BME280;67214;47.454;18.966;2024-02-04T04:38:47;100551.14;;;8.46;79.79
77572;BME280;67214;47.454;18.966;2024-02-04T04:41:17;100564.44;;;8.45;79.89
77572;BME280;67214;47.454;18.966;2024-02-04T04:43:44;100566.47;;;8.34;80.41
77572;BME280;67214;47.454;18.966;2024-02-04T04:46:11;100564.09;;;8.36;80.32
77572;BME280;67214;47.454;18.966;2024-02-04T04:48:39;100560.72;;;8.34;80.50
77572;BME280;67214;47.454;18.966;2024-02-04T04:51:08;100563.06;;;8.32;80.53
77572;BME280;67214;47.454;18.966;2024-02-04T04:53:36;100562.51;;;8.34;80.53
77572;BME280;67214;47.454;18.966;2024-02-04T04:56:05;100558.42;;;8.35;80.49
77572;BME280;67214;47.454;18.966;2024-02-04T04:58:33;100551.52;;;8.40;80.34
77572;BME280;67214;47.454;18.966;2024-02-04T05:01:00;100552.03;;;8.32;80.64
77572;BME280;67214;47.454;18.966;2024-02-04T05:03:27;100544.66;;;8.37;80.38
77572;BME280;67214;47.454;18.966;2024-02-04T05:05:55;100540.95;;;8.40;80.35
77572;BME280;67214;47.454;18.966;2024-02-04T05:08:22;100521.08;;;8.34;80.61
77572;BME280;67214;47.454;18.966;2024-02-04T05:10:50;100534.59;;;8.30;80.95
77572;BME280;67214;47.454;18.966;2024-02-04T05:13:17;100539.70;;;8.19;81.59
77572;BME280;67214;47.454;18.966;2024-02-04T05:15:45;100543.66;;;8.19;81.78
77572;BME280;67214;47.454;18.966;2024-02-04T05:18:12;100556.69;;;8.15;82.11
77572;BME280;67214;47.454;18.966;2024-02-04T05:20:39;100545.45;;;8.18;82.27
77572;BME280;67214;47.454;18.966;2024-02-04T05:23:07;100552.98;;;8.17;82.34
77572;BME280;67214;47.454;18.966;2024-02-04T05:25:36;100556.69;;;8.15;82.61
77572;BME280;67214;47.454;18.966;2024-02-04T05:28:04;100550.26;;;8.12;82.77
77572;BME280;67214;47.454;18.966;2024-02-04T05:30:31;100552.55;;;8.11;82.96
77572;BME280;67214;47.454;18.966;2024-02-04T05:32:59;100546.59;;;8.14;82.96
77572;BME280;67214;47.454;18.966;2024-02-04T05:35:26;100550.46;;;8.09;83.21
77572;BME280;67214;47.454;18.966;2024-02-04T05:37:53;100551.98;;;8.06;83.47
77572;BME280;67214;47.454;18.966;2024-02-04T05:40:21;100549.91;;;8.11;83.45
77572;BME280;67214;47.454;18.966;2024-02-04T05:42:48;100551.05;;;8.07;83.55
77572;BME280;67214;47.454;18.966;2024-02-04T05:45:16;100547.84;;;8.02;83.73
77572;BME280;67214;47.454;18.966;2024-02-04T05:47:43;100545.23;;;7.94;84.23
77572;BME280;67214;47.454;18.966;2024-02-04T05:50:11;100545.42;;;7.84;84.46
77572;BME280;67214;47.454;18.966;2024-02-04T05:52:39;100538.53;;;7.75;84.95
77572;BME280;67214;47.454;18.966;2024-02-04T05:55:06;100541.95;;;7.63;85.21
77572;BME280;67214;47.454;18.966;2024-02-04T05:57:34;100545.44;;;7.63;85.56
77572;BME280;67214;47.454;18.966;2024-02-04T06:00:01;100547.50;;;7.58;85.81
77572;BME280;67214;47.454;18.966;2024-02-04T06:02:29;100553.45;;;7.47;86.31
77572;BME280;67214;47.454;18.966;2024-02-04T06:04:57;100558.64;;;7.56;86.13
77572;BME280;67214;47.454;18.966;2024-02-04T06:07:24;100555.81;;;7.73;85.51
77572;BME280;67214;47.454;18.966;2024-02-04T06:09:52;100567.98;;;7.62;85.73
77572;BME280;67214;47.454;18.966;2024-02-04T06:12:19;100572.95;;;7.66;85.66
77572;BME280;67214;47.454;18.966;2024-02-04T06:14:46;100567.69;;;7.73;85.55
77572;BME280;67214;47.454;18.966;2024-02-04T06:17:14;100555.81;;;7.73;85.36
77572;BME280;67214;47.454;18.966;2024-02-04T06:19:44;100555.71;;;7.68;85.53
77572;BME280;67214;47.454;18.966;2024-02-04T06:22:11;100551.83;;;7.66;85.52
77572;BME280;67214;47.454;18.966;2024-02-04T06:24:38;100560.98;;;7.68;85.57
77572;BME280;67214;47.454;18.966;2024-02-04T06:27:11;100564.40;;;7.70;85.42
77572;BME280;67214;47.454;18.966;2024-02-04T06:29:40;100563.08;;;7.70;85.45
77572;BME280;67214;47.454;18.966;2024-02-04T06:32:07;100572.67;;;7.71;85.32
77572;BME280;67214;47.454;18.966;2024-02-04T06:34:35;100577.39;;;7.80;84.89
77572;BME280;67214;47.454;18.966;2024-02-04T06:37:02;100569.18;;;7.84;84.73
77572;BME280;67214;47.454;18.966;2024-02-04T06:39:29;100568.05;;;7.74;84.91
77572;BME280;67214;47.454;18.966;2024-02-04T06:41:57;100576.17;;;7.85;84.73
77572;BME280;67214;47.454;18.966;2024-02-04T06:44:24;100581.34;;;7.94;84.18
77572;BME280;67214;47.454;18.966;2024-02-04T06:46:52;100594.53;;;7.87;84.53
77572;BME280;67214;47.454;18.966;2024-02-04T06:49:19;100595.12;;;7.85;84.51
77572;BME280;67214;47.454;18.966;2024-02-04T06:51:47;100597.08;;;7.95;84.20
77572;BME280;67214;47.454;18.966;2024-02-04T06:54:15;100585.19;;;7.95;84.00
77572;BME280;67214;47.454;18.966;2024-02-04T06:56:42;100604.64;;;7.94;84.18
77572;BME280;67214;47.454;18.966;2024-02-04T06:59:09;100609.25;;;8.05;83.62
77572;BME280;67214;47.454;18.966;2024-02-04T07:01:37;100593.50;;;8.11;83.31
77572;BME280;67214;47.454;18.966;2024-02-04T07:04:04;100595.28;;;8.10;83.32
77572;BME280;67214;47.454;18.966;2024-02-04T07:06:32;100598.17;;;8.20;82.76
77572;BME280;67214;47.454;18.966;2024-02-04T07:08:59;100601.56;;;8.36;82.00
77572;BME280;67214;47.454;18.966;2024-02-04T07:11:26;100597.33;;;8.26;82.34
77572;BME280;67214;47.454;18.966;2024-02-04T07:13:54;100592.66;;;8.44;81.44
77572;BME280;67214;47.454;18.966;2024-02-04T07:16:24;100597.73;;;8.54;81.14
77572;BME280;67214;47.454;18.966;2024-02-04T07:18:54;100603.94;;;8.60;81.06
77572;BME280;67214;47.454;18.966;2024-02-04T07:21:22;100603.34;;;8.69;80.37
77572;BME280;67214;47.454;18.966;2024-02-04T07:23:50;100590.13;;;8.69;80.31
77572;BME280;67214;47.454;18.966;2024-02-04T07:26:17;100590.24;;;8.68;80.14
77572;BME280;67214;47.454;18.966;2024-02-04T07:28:48;100594.00;;;8.71;79.86
77572;BME280;67214;47.454;18.966;2024-02-04T07:31:16;100594.84;;;8.71;79.76
77572;BME280;67214;47.454;18.966;2024-02-04T07:33:45;100598.14;;;8.75;79.51
77572;BME280;67214;47.454;18.966;2024-02-04T07:36:12;100591.41;;;8.76;79.30
77572;BME280;67214;47.454;18.966;2024-02-04T07:38:39;100593.11;;;8.77;79.44
77572;BME280;67214;47.454;18.966;2024-02-04T07:41:07;100584.02;;;8.81;79.32
77572;BME280;67214;47.454;18.966;2024-02-04T07:43:34;100585.38;;;8.94;78.84
77572;BME280;67214;47.454;18.966;2024-02-04T07:46:03;100606.73;;;9.11;78.13
77572;BME280;67214;47.454;18.966;2024-02-04T07:48:31;100591.73;;;9.24;77.48
77572;BME280;67214;47.454;18.966;2024-02-04T07:50:59;100578.03;;;9.24;77.43
77572;BME280;67214;47.454;18.966;2024-02-04T07:53:26;100579.08;;;9.34;76.81
77572;BME280;67214;47.454;18.966;2024-02-04T07:55:54;100593.70;;;9.40;76.24
77572;BME280;67214;47.454;18.966;2024-02-04T07:58:22;100601.33;;;9.45;75.83
77572;BME280;67214;47.454;18.966;2024-02-04T08:00:49;100591.47;;;9.47;75.86
77572;BME280;67214;47.454;18.966;2024-02-04T08:03:16;100601.05;;;9.55;75.54
77572;BME280;67214;47.454;18.966;2024-02-04T08:05:44;100597.99;;;9.61;74.94
77572;BME280;67214;47.454;18.966;2024-02-04T08:08:11;100602.06;;;9.59;74.72
77572;BME280;67214;47.454;18.966;2024-02-04T08:10:39;100599.88;;;9.59;74.88
77572;BME280;67214;47.454;18.966;2024-02-04T08:13:06;100600.42;;;9.51;74.92
77572;BME280;67214;47.454;18.966;2024-02-04T08:15:34;100597.77;;;9.51;74.81
77572;BME280;67214;47.454;18.966;2024-02-04T08:18:01;100592.23;;;9.49;74.88
77572;BME280;67214;47.454;18.966;2024-02-04T08:20:29;100588.03;;;9.64;74.50
77572;BME280;67214;47.454;18.966;2024-02-04T08:22:56;100593.32;;;9.77;73.93
77572;BME280;67214;47.454;18.966;2024-02-04T08:25:23;100596.97;;;9.82;73.76
77572;BME280;67214;47.454;18.966;2024-02-04T08:27:53;100584.83;;;9.85;73.24
77572;BME280;67214;47.454;18.966;2024-02-04T08:30:20;100586.63;;;9.84;73.69
77572;BME280;67214;47.454;18.966;2024-02-04T08:32:47;100586.30;;;9.89;73.42
77572;BME280;67214;47.454;18.966;2024-02-04T08:35:15;100609.67;;;9.89;73.38
77572;BME280;67214;47.454;18.966;2024-02-04T08:37:42;100614.84;;;9.91;73.35
77572;BME280;67214;47.454;18.966;2024-02-04T08:40:10;100619.33;;;9.90;73.10
77572;BME280;67214;47.454;18.966;2024-02-04T08:42:37;100612.42;;;9.88;73.21
77572;BME280;67214;47.454;18.966;2024-02-04T08:45:05;100618.25;;;9.93;72.72
77572;BME280;67214;47.454;18.966;2024-02-04T08:47:33;100630.42;;;9.95;72.79
77572;BME280;67214;47.454;18.966;2024-02-04T08:50:00;100628.20;;;10.02;72.42
77572;BME280;67214;47.454;18.966;2024-02-04T08:52:28;100606.25;;;10.00;72.13
77572;BME280;67214;47.454;18.966;2024-02-04T08:54:55;100599.55;;;10.07;71.93
77572;BME280;67214;47.454;18.966;2024-02-04T08:57:26;100604.99;;;10.18;71.38
77572;BME280;67214;47.454;18.966;2024-02-04T08:59:53;100608.49;;;10.18;70.90
77572;BME280;67214;47.454;18.966;2024-02-04T09:02:21;100600.03;;;10.19;70.79
77572;BME280;67214;47.454;18.966;2024-02-04T09:04:48;100611.44;;;10.27;70.51
77572;BME280;67214;47.454;18.966;2024-02-04T09:07:15;100602.93;;;10.34;69.71
77572;BME280;67214;47.454;18.966;2024-02-04T09:09:43;100591.85;;;10.35;69.82
77572;BME280;67214;47.454;18.966;2024-02-04T09:12:10;100588.07;;;10.32;69.60
77572;BME280;67214;47.454;18.966;2024-02-04T09:14:38;100576.13;;;10.26;70.07
77572;BME280;67214;47.454;18.966;2024-02-04T09:17:05;100557.86;;;10.34;69.82
77572;BME280;67214;47.454;18.966;2024-02-04T09:19:33;100564.36;;;10.36;69.70
77572;BME280;67214;47.454;18.966;2024-02-04T09:22:01;100554.41;;;10.45;69.23
77572;BME280;67214;47.454;18.966;2024-02-04T09:24:30;100559.80;;;10.61;68.93
77572;BME280;67214;47.454;18.966;2024-02-04T09:26:57;100567.45;;;10.71;67.94
77572;BME280;67214;47.454;18.966;2024-02-04T09:29:25;100567.59;;;10.76;68.00
77572;BME280;67214;47.454;18.966;2024-02-04T09:31:52;100583.03;;;10.82;67.67
77572;BME280;67214;47.454;18.966;2024-02-04T09:34:20;100577.62;;;10.83;67.70
77572;BME280;67214;47.454;18.966;2024-02-04T09:36:47;100578.37;;;10.91;67.61
77572;BME280;67214;47.454;18.966;2024-02-04T09:39:15;100584.80;;;11.05;67.35
77572;BME280;67214;47.454;18.966;2024-02-04T09:41:43;100578.66;;;11.10;67.15
77572;BME280;67214;47.454;18.966;2024-02-04T09:44:12;100578.40;;;11.02;67.16
77572;BME280;67214;47.454;18.966;2024-02-04T09:46:40;100589.15;;;11.00;67.00
77572;BME280;67214;47.454;18.966;2024-02-04T09:49:09;100581.98;;;10.90;67.20
77572;BME280;67214;47.454;18.966;2024-02-04T09:51:39;100572.21;;;10.90;67.15
77572;BME280;67214;47.454;18.966;2024-02-04T09:54:09;100582.72;;;10.92;67.15
77572;BME280;67214;47.454;18.966;2024-02-04T09:56:39;100587.11;;;11.04;67.03
77572;BME280;67214;47.454;18.966;2024-02-04T09:59:07;100612.32;;;11.04;66.81
77572;BME280;67214;47.454;18.966;2024-02-04T10:01:35;100583.98;;;11.04;66.42
77572;BME280;67214;47.454;18.966;2024-02-04T10:04:03;100584.36;;;11.22;66.13
77572;BME280;67214;47.454;18.966;2024-02-04T10:06:30;100568.70;;;11.25;65.85
77572;BME280;67214;47.454;18.966;2024-02-04T10:08:58;100576.46;;;11.55;65.32
77572;BME280;67214;47.454;18.966;2024-02-04T10:11:26;100562.13;;;11.80;64.51
77572;BME280;67214;47.454;18.966;2024-02-04T10:13:53;100558.13;;;11.91;63.42
77572;BME280;67214;47.454;18.966;2024-02-04T10:16:22;100556.92;;;12.01;62.69
77572;BME280;67214;47.454;18.966;2024-02-04T10:18:50;100570.92;;;12.08;62.20
77572;BME280;67214;47.454;18.966;2024-02-04T10:21:21;100552.09;;;12.06;62.34
77572;BME280;67214;47.454;18.966;2024-02-04T10:23:50;100527.77;;;12.16;61.66
77572;BME280;67214;47.454;18.966;2024-02-04T10:26:18;100536.08;;;12.28;60.99
77572;BME280;67214;47.454;18.966;2024-02-04T10:28:46;100537.02;;;12.38;60.98
77572;BME280;67214;47.454;18.966;2024-02-04T10:31:14;100542.30;;;12.49;60.67
77572;BME280;67214;47.454;18.966;2024-02-04T10:33:42;100541.59;;;12.74;59.56
77572;BME280;67214;47.454;18.966;2024-02-04T10:36:10;100538.20;;;12.45;59.98
77572;BME280;67214;47.454;18.966;2024-02-04T10:38:38;100534.31;;;12.55;59.90
77572;BME280;67214;47.454;18.966;2024-02-04T10:41:07;100514.78;;;12.66;60.02
77572;BME280;67214;47.454;18.966;2024-02-04T10:43:34;100503.90;;;12.31;59.91
77572;BME280;67214;47.454;18.966;2024-02-04T10:46:15;100508.41;;;12.31;60.66
77572;BME280;67214;47.454;18.966;2024-02-04T10:48:42;100520.11;;;12.34;60.43
77572;BME280;67214;47.454;18.966;2024-02-04T10:51:13;100517.16;;;12.05;60.94
77572;BME280;67214;47.454;18.966;2024-02-04T10:53:42;100517.02;;;12.06;61.03
77572;BME280;67214;47.454;18.966;2024-02-04T10:56:32;100508.11;;;12.02;61.13
77572;BME280;67214;47.454;18.966;2024-02-04T10:58:59;100516.05;;;12.13;60.67
77572;BME280;67214;47.454;18.966;2024-02-04T11:01:29;100505.20;;;12.05;60.89
77572;BME280;67214;47.454;18.966;2024-02-04T11:03:58;100492.16;;;12.02;60.64
77572;BME280;67214;47.454;18.966;2024-02-04T11:06:27;100490.32;;;12.02;60.86
77572;BME280;67214;47.454;18.966;2024-02-04T11:08:56;100492.61;;;12.13;60.72
77572;BME280;67214;47.454;18.966;2024-02-04T11:11:26;100501.61;;;12.27;59.90
77572;BME280;67214;47.454;18.966;2024-02-04T11:13:58;100476.65;;;12.18;60.23
77572;BME280;67214;47.454;18.966;2024-02-04T11:19:35;100484.20;;;12.34;59.84
77572;BME280;67214;47.454;18.966;2024-02-04T11:23:08;100484.32;;;12.32;58.77
77572;BME280;67214;47.454;18.966;2024-02-04T11:27:25;100486.80;;;12.50;57.81
77572;BME280;67214;47.454;18.966;2024-02-04T11:29:53;100478.92;;;12.54;58.00
77572;BME280;67214;47.454;18.966;2024-02-04T11:32:23;100491.31;;;12.65;57.55
77572;BME280;67214;47.454;18.966;2024-02-04T11:34:50;100506.83;;;12.81;56.70
77572;BME280;67214;47.454;18.966;2024-02-04T11:37:19;100488.94;;;12.56;56.90
77572;BME280;67214;47.454;18.966;2024-02-04T11:39:54;100460.93;;;12.68;57.03
77572;BME280;67214;47.454;18.966;2024-02-04T11:42:33;100475.16;;;12.98;56.07
77572;BME280;67214;47.454;18.966;2024-02-04T11:45:13;100465.53;;;12.71;55.96
77572;BME280;67214;47.454;18.966;2024-02-04T11:47:37;100469.62;;;12.96;55.35
77572;BME280;67214;47.454;18.966;2024-02-04T11:50:06;100453.47;;;13.24;55.23
77572;BME280;67214;47.454;18.966;2024-02-04T11:52:35;100460.55;;;13.59;54.35
77572;BME280;67214;47.454;18.966;2024-02-04T11:55:03;100445.84;;;13.49;54.31
77572;BME280;67214;47.454;18.966;2024-02-04T11:57:33;100443.02;;;13.66;54.29
77572;BME280;67214;47.454;18.966;2024-02-04T12:00:01;100419.95;;;13.61;54.00
77572;BME280;67214;47.454;18.966;2024-02-04T12:02:31;100436.59;;;13.78;53.21
77572;BME280;67214;47.454;18.966;2024-02-04T12:05:01;100427.30;;;13.88;53.28
77572;BME280;67214;47.454;18.966;2024-02-04T12:07:29;100420.60;;;13.69;52.80
77572;BME280;67214;47.454;18.966;2024-02-04T12:09:57;100424.03;;;13.75;52.77
77572;BME280;67214;47.454;18.966;2024-02-04T12:12:24;100417.58;;;13.68;52.59
77572;BME280;67214;47.454;18.966;2024-02-04T12:14:53;100408.09;;;13.60;52.80
77572;BME280;67214;47.454;18.966;2024-02-04T12:17:20;100425.21;;;13.67;53.13
77572;BME280;67214;47.454;18.966;2024-02-04T12:19:48;100394.16;;;13.71;52.91
77572;BME280;67214;47.454;18.966;2024-02-04T12:22:16;100418.09;;;13.77;53.24
77572;BME280;67214;47.454;18.966;2024-02-04T12:24:45;100402.09;;;13.77;53.19
77572;BME280;67214;47.454;18.966;2024-02-04T12:27:18;100419.03;;;13.57;54.05
77572;BME280;67214;47.454;18.966;2024-02-04T12:29:45;100429.61;;;13.53;54.01
77572;BME280;67214;47.454;18.966;2024-02-04T12:32:14;100431.02;;;13.57;54.17
77572;BME280;67214;47.454;18.966;2024-02-04T12:34:46;100440.19;;;13.83;53.78
77572;BME280;67214;47.454;18.966;2024-02-04T12:37:10;100430.86;;;13.83;53.78
77572;BME280;67214;47.454;18.966;2024-02-04T12:39:38;100440.83;;;13.81;53.72
77572;BME280;67214;47.454;18.966;2024-02-04T12:42:06;100445.25;;;13.36;55.01
77572;BME280;67214;47.454;18.966;2024-02-04T12:44:34;100443.32;;;13.33;55.61
77572;BME280;67214;47.454;18.966;2024-02-04T12:47:01;100443.94;;;13.61;54.93
77572;BME280;67214;47.454;18.966;2024-02-04T12:49:29;100447.73;;;13.43;55.04
77572;BME280;67214;47.454;18.966;2024-02-04T12:52:05;100441.95;;;13.38;55.38
77572;BME280;67214;47.454;18.966;2024-02-04T12:54:45;100440.57;;;13.29;55.50
77572;BME280;67214;47.454;18.966;2024-02-04T12:57:09;100444.91;;;13.20;56.13
77572;BME280;67214;47.454;18.966;2024-02-04T12:59:38;100429.33;;;13.16;56.33
77572;BME280;67214;47.454;18.966;2024-02-04T13:02:08;100440.78;;;12.80;57.04